Auburn, CA

2:43 PM PDT on October 18, 2019 (GMT -0700)
Auburn Municipal

Weather History for KAUN - September, 2019

Change the Weather History Date:

Thursday, September 19, 2019

  Actual Average Record
Temperature  
Mean Temperature 60 °F -  
Max Temperature 71 °F 82 °F 100 °F (1984)
Min Temperature 50 °F 56 °F 42 °F (1948)
Degree Days  
Heating Degree Days 4    
Growing Degree Days 10 (Base 50)    
Moisture  
Dew Point 48 °F    
Average Humidity 67    
Maximum Humidity 94    
Minimum Humidity 38    
Precipitation  
Precipitation 0.00 in - - ()
Sea Level Pressure  
Sea Level Pressure 29.94 in    
Wind  
Wind Speed 3 mph ()    
Max Wind Speed 9 mph    
Max Gust Speed 15 mph    
Visibility 10.0 miles    
Events      
Averages and records for this station are not official NWS values.
T = Trace of Precipitation, MM = Missing Value Source: Averaged Metar Reports

Daily Weather History Graph

Daily Weather History Graph

Search for Another Location

Airport or City:

Astronomy

Sep. 19, 2019 Rise Set
Actual Time 6:49 AM PDT 7:06 PM PDT
Civil Twilight 6:22 AM PDT 7:32 PM PDT
Nautical Twilight 5:51 AM PDT 8:04 PM PDT
Astronomical Twilight 5:19 AM PDT 8:36 PM PDT
Moon 10:21 PM PDT (9/19) 11:55 AM PDT (9/19)
Length of Visible Light 13h 10m
Length of Day
12h 17m
Waning Gibbous, 73% of the Moon is Illuminated
Sep 19
Waning Gibbous
Sep 21
Last Quarter
Sep 28
New
Oct 5
First Quarter
Oct 13
Full

Hourly Weather History & Observations

Time (PDT) Temp. Dew Point Humidity Pressure Visibility Wind Dir Wind Speed Gust Speed Precip Events Conditions
12:15 AM 55.4 °F 50.0 °F 82% 29.93 in 10.0 mi East 9.2 mph - N/A   Partly Cloudy
12:35 AM 55.4 °F 50.0 °F 82% 29.93 in 10.0 mi East 9.2 mph - N/A   Partly Cloudy
12:55 AM 55.4 °F 50.0 °F 82% 29.94 in 10.0 mi Calm Calm - N/A   Clear
1:15 AM 53.6 °F 48.2 °F 82% 29.94 in 10.0 mi Calm Calm - N/A   Clear
1:35 AM 53.6 °F 50.0 °F 88% 29.94 in 10.0 mi NE 4.6 mph - N/A   Clear
1:55 AM 53.6 °F 50.0 °F 88% 29.93 in 10.0 mi NE 4.6 mph - N/A   Clear
2:15 AM 53.6 °F 48.2 °F 82% 29.93 in 10.0 mi Calm Calm - N/A   Clear
2:35 AM 51.8 °F 48.2 °F 88% 29.94 in 10.0 mi Calm Calm - N/A   Clear
2:55 AM 51.8 °F 48.2 °F 88% 29.93 in 10.0 mi Calm Calm - N/A   Clear
3:15 AM 51.8 °F 48.2 °F 88% 29.93 in 10.0 mi Calm Calm - N/A   Clear
3:35 AM 51.8 °F 48.2 °F 88% 29.93 in 10.0 mi Calm Calm - N/A   Clear
3:55 AM 50.0 °F 48.2 °F 94% 29.92 in 10.0 mi Calm Calm - N/A   Clear
4:15 AM 50.0 °F 48.2 °F 94% 29.93 in 10.0 mi Calm Calm - N/A   Clear
4:35 AM 51.8 °F 48.2 °F 88% 29.92 in 10.0 mi Calm Calm - N/A   Clear
4:55 AM 50.0 °F 48.2 °F 94% 29.92 in 10.0 mi Calm Calm - N/A   Clear
5:15 AM 50.0 °F 48.2 °F 94% 29.92 in 10.0 mi Calm Calm - N/A   Clear
5:35 AM 50.0 °F 48.2 °F 94% 29.93 in 10.0 mi Calm Calm - N/A   Clear
5:55 AM 50.0 °F 48.2 °F 94% 29.93 in 10.0 mi Calm Calm - N/A   Clear
6:15 AM 50.0 °F 48.2 °F 94% 29.93 in 10.0 mi Calm Calm - N/A   Clear
6:35 AM 50.0 °F 48.2 °F 94% 29.93 in 10.0 mi East 4.6 mph - N/A   Clear
6:55 AM 50.0 °F 46.4 °F 87% 29.94 in 10.0 mi East 6.9 mph - N/A   Clear
7:15 AM 51.8 °F 48.2 °F 88% 29.94 in 10.0 mi Calm Calm - N/A   Clear
7:35 AM 51.8 °F 48.2 °F 88% 29.95 in 10.0 mi Calm Calm - N/A   Clear
7:55 AM 53.6 °F 48.2 °F 82% 29.95 in 10.0 mi East 4.6 mph - N/A   Clear
8:15 AM 55.4 °F 48.2 °F 77% 29.96 in 10.0 mi Calm Calm - N/A   Clear
8:35 AM 57.2 °F 50.0 °F 77% 29.96 in 10.0 mi Calm Calm - N/A   Clear
8:55 AM 59.0 °F 50.0 °F 72% 29.97 in 10.0 mi Calm Calm - N/A   Clear
9:15 AM 59.0 °F 48.2 °F 67% 29.97 in 10.0 mi Calm Calm - N/A   Clear
9:35 AM 60.8 °F 48.2 °F 63% 29.97 in 10.0 mi Calm Calm - N/A   Clear
9:55 AM 62.6 °F 46.4 °F 55% 29.97 in 10.0 mi Calm Calm - N/A   Clear
10:15 AM 62.6 °F 46.4 °F 55% 29.97 in 10.0 mi Calm Calm - N/A   Clear
10:35 AM 62.6 °F 48.2 °F 59% 29.98 in 10.0 mi West 4.6 mph - N/A   Clear
10:55 AM 64.4 °F 48.2 °F 56% 29.98 in 10.0 mi West 5.8 mph - N/A   Clear
11:15 AM 64.4 °F 48.2 °F 56% 29.98 in 10.0 mi WNW 3.5 mph - N/A   Clear
11:35 AM 64.4 °F 46.4 °F 52% 29.98 in 10.0 mi Calm Calm - N/A   Clear
11:55 AM 66.2 °F 48.2 °F 52% 29.97 in 10.0 mi Calm Calm - N/A   Clear
12:15 PM 68.0 °F 48.2 °F 49% 29.97 in 10.0 mi Variable 3.5 mph - N/A   Clear
12:35 PM 68.0 °F 46.4 °F 46% 29.97 in 10.0 mi Calm Calm - N/A   Clear
12:55 PM 68.0 °F 48.2 °F 49% 29.97 in 10.0 mi SW 6.9 mph - N/A   Clear
1:15 PM 68.0 °F 48.2 °F 49% 29.96 in 10.0 mi SW 5.8 mph 12.7 mph N/A   Clear
1:35 PM 69.8 °F 46.4 °F 43% 29.96 in 10.0 mi West 6.9 mph - N/A   Clear
1:55 PM 69.8 °F 46.4 °F 43% 29.96 in 10.0 mi West 6.9 mph - N/A   Clear
2:15 PM 69.8 °F 46.4 °F 43% 29.95 in 10.0 mi West 5.8 mph - N/A   Clear
2:35 PM 71.6 °F 46.4 °F 41% 29.95 in 10.0 mi West 9.2 mph - N/A   Clear
2:55 PM 71.6 °F 44.6 °F 38% 29.95 in 10.0 mi NNW 4.6 mph 11.5 mph N/A   Clear
3:15 PM 71.6 °F 44.6 °F 38% 29.94 in 10.0 mi NW 4.6 mph - N/A   Clear
3:35 PM 71.6 °F 44.6 °F 38% 29.94 in 10.0 mi Calm Calm 11.5 mph N/A   Clear
3:55 PM 71.6 °F 44.6 °F 38% 29.94 in 10.0 mi Variable 4.6 mph 11.5 mph N/A   Clear
4:15 PM 71.6 °F 44.6 °F 38% 29.94 in 10.0 mi NW 5.8 mph 12.7 mph N/A   Clear
4:35 PM 71.6 °F 44.6 °F 38% 29.94 in 10.0 mi WNW 8.1 mph 15.0 mph N/A   Clear
4:55 PM 71.6 °F 44.6 °F 38% 29.94 in 10.0 mi West 6.9 mph - N/A   Clear
5:15 PM 71.6 °F 44.6 °F 38% 29.93 in 10.0 mi West 5.8 mph - N/A   Clear
5:35 PM 71.6 °F 44.6 °F 38% 29.94 in 10.0 mi WNW 5.8 mph - N/A   Clear
5:55 PM 69.8 °F 46.4 °F 43% 29.94 in 10.0 mi WNW 5.8 mph - N/A   Clear
6:15 PM 69.8 °F 46.4 °F 43% 29.94 in 10.0 mi WNW 8.1 mph - N/A   Clear
6:35 PM 68.0 °F 48.2 °F 49% 29.94 in 10.0 mi Variable 3.5 mph 12.7 mph N/A   Clear
6:55 PM 66.2 °F 48.2 °F 52% 29.94 in 10.0 mi Calm Calm - N/A   Clear
7:15 PM 64.4 °F 48.2 °F 56% 29.93 in 10.0 mi Calm Calm - N/A   Clear
7:55 PM 60.8 °F 50.0 °F 68% 29.93 in 10.0 mi Calm Calm - N/A   Clear
8:15 PM 59.0 °F 50.0 °F 72% 29.94 in 10.0 mi Calm Calm - N/A   Clear
8:35 PM 57.2 °F 50.0 °F 77% 29.94 in 10.0 mi Calm Calm - N/A   Clear
8:55 PM 57.2 °F 50.0 °F 77% 29.94 in 10.0 mi Calm Calm - N/A   Clear
9:15 PM 60.8 °F 50.0 °F 68% 29.94 in 10.0 mi Calm Calm - N/A   Clear
9:35 PM 59.0 °F 50.0 °F 72% 29.94 in 10.0 mi Calm Calm - N/A   Clear
9:55 PM 57.2 °F 50.0 °F 77% 29.94 in 10.0 mi Calm Calm - N/A   Clear
10:15 PM 57.2 °F 50.0 °F 77% 29.93 in 10.0 mi Calm Calm - N/A   Clear
10:35 PM 59.0 °F 50.0 °F 72% 29.94 in 10.0 mi Calm Calm - N/A   Clear
10:55 PM 59.0 °F 50.0 °F 72% 29.94 in 10.0 mi Calm Calm - N/A   Clear
11:15 PM 57.2 °F 50.0 °F 77% 29.94 in 10.0 mi Calm Calm - N/A   Clear
11:35 PM 57.2 °F 50.0 °F 77% 29.93 in 10.0 mi Calm Calm - N/A   Clear
11:55 PM 59.0 °F 48.2 °F 67% 29.93 in 10.0 mi Calm Calm - N/A   Clear